createdAt,value
2019-01-17T00:03:48.842Z,9.10
2019-01-17T00:10:10.225Z,8.63
2019-01-17T00:13:12.001Z,9.80
2019-01-17T00:16:35.634Z,9.50
2019-01-17T00:19:18.953Z,10.97
2019-01-17T00:22:45.043Z,9.70
2019-01-17T00:25:41.031Z,11.40
2019-01-17T00:29:19.171Z,10.07
2019-01-17T00:32:21.316Z,10.27
2019-01-17T00:35:23.898Z,9.30
2019-01-17T00:38:12.917Z,8.83
2019-01-17T00:41:20.665Z,9.20
2019-01-17T00:44:27.370Z,9.43
2019-01-17T00:47:35.984Z,8.27
2019-01-17T00:50:42.353Z,8.47
2019-01-17T00:53:36.547Z,7.70
2019-01-17T00:56:28.883Z,7.30
2019-01-17T00:59:20.873Z,6.83
2019-01-17T01:02:11.854Z,7.03
2019-01-17T01:04:58.968Z,6.50
2019-01-17T01:08:08.943Z,6.63
2019-01-17T01:11:04.725Z,5.97
2019-01-17T01:14:16.330Z,5.70
2019-01-17T01:17:31.633Z,5.50
2019-01-17T01:20:14.297Z,5.90
2019-01-17T01:23:02.331Z,5.90
2019-01-17T01:25:48.955Z,5.57
2019-01-17T01:28:37.645Z,6.40
2019-01-17T01:31:33.876Z,6.03
2019-01-17T01:34:15.533Z,6.30
2019-01-17T01:37:18.348Z,4.70
2019-01-17T01:40:14.595Z,4.73
2019-01-17T01:43:00.833Z,5.37
2019-01-17T01:46:13.197Z,5.23
2019-01-17T01:48:57.409Z,4.87
2019-01-17T01:51:49.359Z,5.13
2019-01-17T01:54:22.084Z,5.70
2019-01-17T01:56:50.457Z,5.33
2019-01-17T01:59:20.863Z,5.30
2019-01-17T02:01:54.549Z,5.20
2019-01-17T02:04:33.957Z,4.63
2019-01-17T02:07:03.497Z,5.33
2019-01-17T02:09:33.764Z,5.30
2019-01-17T02:12:03.042Z,5.53
2019-01-17T02:14:36.300Z,5.73
2019-01-17T02:17:12.796Z,5.30
2019-01-17T02:19:42.378Z,5.00
2019-01-17T02:22:22.679Z,5.10
2019-01-17T02:25:03.527Z,5.00
2019-01-17T02:27:37.271Z,5.47
2019-01-17T02:30:06.640Z,4.93
2019-01-17T02:32:40.102Z,5.03
2019-01-17T02:35:20.904Z,5.63
2019-01-17T02:37:52.388Z,4.97
2019-01-17T02:40:35.965Z,5.70
2019-01-17T02:43:14.002Z,5.40
2019-01-17T02:45:52.297Z,5.77
2019-01-17T02:48:38.268Z,5.33
2019-01-17T02:51:22.278Z,4.77
2019-01-17T02:54:03.568Z,5.23
2019-01-17T02:56:40.987Z,4.80
2019-01-17T02:59:25.079Z,5.40
2019-01-17T03:02:13.559Z,5.70
2019-01-17T03:04:51.121Z,5.30
2019-01-17T03:07:21.139Z,6.00
2019-01-17T03:09:56.644Z,5.53
2019-01-17T03:12:26.154Z,5.60
2019-01-17T03:14:56.338Z,5.37
2019-01-17T03:17:41.248Z,5.50
2019-01-17T03:20:14.946Z,5.00
2019-01-17T03:22:52.721Z,5.03
2019-01-17T03:25:33.394Z,5.73
2019-01-17T03:28:09.525Z,6.17
2019-01-17T03:30:39.129Z,6.27
2019-01-17T03:33:16.940Z,6.63
2019-01-17T03:36:03.802Z,6.30
2019-01-17T03:38:39.035Z,6.40
2019-01-17T03:41:14.038Z,5.33
2019-01-17T03:43:48.617Z,7.60
2019-01-17T03:46:18.771Z,7.17
2019-01-17T03:49:12.801Z,7.10
2019-01-17T03:51:48.332Z,7.10
2019-01-17T03:54:50.253Z,8.03
2019-01-17T03:57:22.268Z,6.87
2019-01-17T03:59:51.767Z,8.13
2019-01-17T04:02:23.079Z,8.37
2019-01-17T04:04:53.183Z,8.03
2019-01-17T04:07:23.045Z,7.90
2019-01-17T04:09:52.835Z,8.37
2019-01-17T04:12:23.794Z,8.43
2019-01-17T04:14:53.902Z,8.83
2019-01-17T04:17:23.797Z,8.60
2019-01-17T04:19:53.294Z,8.77
2019-01-17T04:22:22.947Z,8.57
2019-01-17T04:24:57.254Z,8.53
2019-01-17T04:27:24.797Z,9.63
2019-01-17T04:29:55.382Z,8.83
2019-01-17T04:32:35.426Z,9.37
2019-01-17T04:35:18.527Z,10.00
2019-01-17T04:38:08.612Z,9.80
2019-01-17T04:40:40.563Z,9.97
2019-01-17T04:43:13.644Z,9.67
2019-01-17T04:45:51.014Z,9.90
2019-01-17T04:48:45.735Z,10.37
2019-01-17T04:51:29.883Z,10.30
2019-01-17T04:54:17.554Z,10.03
2019-01-17T04:57:00.787Z,10.37
2019-01-17T04:59:37.443Z,10.57
2019-01-17T05:02:24.889Z,10.63
2019-01-17T05:05:18.553Z,10.03
2019-01-17T05:07:59.799Z,10.43
2019-01-17T05:10:36.789Z,10.87
2019-01-17T05:16:13.214Z,10.63
2019-01-17T05:18:43.259Z,10.37
2019-01-17T05:21:34.375Z,10.83
2019-01-17T05:24:33.991Z,12.13
2019-01-17T05:27:14.618Z,11.50
2019-01-17T05:29:58.423Z,11.83
2019-01-17T05:32:36.857Z,11.37
2019-01-17T05:35:06.197Z,11.17
2019-01-17T05:37:49.823Z,11.83
2019-01-17T05:40:50.109Z,10.23
2019-01-17T05:43:41.376Z,12.23
2019-01-17T05:46:14.028Z,11.43
2019-01-17T05:49:04.384Z,11.87
2019-01-17T05:51:59.442Z,12.37
2019-01-17T05:54:47.298Z,12.63
2019-01-17T05:57:29.847Z,13.70
2019-01-17T06:00:09.921Z,14.20
2019-01-17T06:06:36.627Z,12.10
2019-01-17T09:29:05.952Z,7.40
2019-01-17T09:32:01.936Z,7.43
2019-01-17T09:38:27.985Z,6.30
2019-01-17T09:41:01.369Z,6.03
2019-01-17T09:44:18.994Z,6.40
2019-01-17T09:53:59.617Z,4.70
2019-01-17T09:56:55.849Z,4.90
2019-01-17T09:59:37.249Z,4.80
2019-01-17T10:02:20.101Z,4.67
2019-01-17T10:04:50.124Z,3.83
2019-01-17T10:07:40.467Z,3.17
2019-01-17T10:10:35.081Z,4.17
2019-01-17T10:13:11.121Z,4.00
2019-01-17T10:16:07.536Z,3.87
2019-01-17T10:19:21.098Z,4.40
2019-01-17T10:22:31.742Z,3.93
2019-01-17T10:25:48.203Z,3.53
2019-01-17T10:29:01.160Z,3.20
2019-01-17T10:32:06.266Z,3.30
2019-01-17T10:35:03.272Z,3.20
2019-01-17T10:38:11.211Z,3.40
2019-01-17T10:41:01.260Z,2.80
2019-01-17T10:44:10.099Z,3.13
2019-01-17T10:47:19.880Z,3.33
2019-01-17T10:50:29.454Z,3.93
2019-01-17T10:53:38.132Z,3.97
2019-01-17T10:57:00.352Z,3.70
2019-01-17T11:00:05.551Z,3.80
2019-01-17T11:03:30.937Z,3.10
2019-01-17T11:06:41.553Z,3.97
2019-01-17T11:09:30.690Z,2.90
2019-01-17T11:12:45.216Z,2.53
2019-01-17T11:15:37.670Z,2.30
2019-01-17T11:18:35.294Z,1.90
2019-01-17T11:21:59.673Z,1.93
2019-01-17T11:24:40.158Z,1.33
2019-01-17T11:27:43.948Z,1.50
2019-01-17T11:30:32.515Z,2.00
2019-01-17T11:33:31.009Z,2.10
2019-01-17T11:36:36.654Z,2.00
2019-01-17T11:39:26.774Z,1.90
2019-01-17T11:42:34.051Z,2.10
2019-01-17T11:45:25.811Z,2.07
2019-01-17T11:48:19.795Z,1.47
2019-01-17T11:51:16.033Z,1.80
2019-01-17T11:54:02.627Z,1.63
2019-01-17T11:56:51.985Z,1.80
2019-01-17T11:59:31.583Z,1.80
2019-01-17T12:02:39.226Z,1.57
2019-01-17T12:05:08.459Z,1.87
2019-01-17T12:07:38.210Z,1.90
2019-01-17T12:10:08.565Z,2.60
2019-01-17T12:12:39.467Z,1.87
2019-01-17T12:15:10.013Z,2.63
2019-01-17T12:17:39.504Z,2.73
2019-01-17T12:20:09.527Z,2.53
2019-01-17T12:55:02.923Z,5.23
2019-01-17T12:57:32.212Z,4.70
2019-01-17T13:00:07.579Z,3.80
2019-01-17T13:02:32.513Z,5.27
2019-01-17T13:05:01.915Z,5.03
2019-01-17T13:07:31.520Z,4.63
2019-01-17T13:10:01.918Z,4.60
2019-01-17T13:12:36.721Z,3.10
2019-01-17T13:15:06.657Z,2.87
2019-01-17T13:17:36.016Z,1.73
2019-01-17T13:20:16.634Z,1.77
2019-01-17T13:22:46.228Z,2.03
2019-01-17T13:25:21.172Z,2.03
2019-01-17T13:27:50.801Z,2.20
2019-01-17T13:30:27.764Z,2.07
2019-01-17T13:32:59.954Z,2.50
2019-01-17T13:35:29.048Z,2.67
2019-01-17T13:37:58.371Z,2.67
2019-01-17T13:40:28.828Z,1.97
2019-01-17T13:42:59.944Z,2.63
2019-01-17T13:45:32.912Z,2.37
2019-01-17T13:48:06.030Z,2.40
2019-01-17T13:50:35.682Z,2.43
2019-01-17T13:53:05.671Z,2.80
2019-01-17T13:55:36.088Z,2.53
2019-01-17T13:58:12.452Z,2.97
2019-01-17T14:00:42.734Z,3.50
2019-01-17T14:03:12.579Z,3.40
2019-01-17T14:05:41.965Z,3.20
2019-01-17T14:08:11.473Z,3.33
2019-01-17T14:10:41.119Z,4.67
2019-01-17T14:13:12.704Z,5.30
2019-01-17T14:15:43.051Z,5.50
2019-01-17T14:18:12.708Z,6.43
2019-01-17T14:20:43.040Z,7.20
2019-01-17T14:23:18.136Z,7.20
2019-01-17T14:25:47.972Z,7.70
2019-01-17T14:28:17.564Z,7.77
2019-01-17T14:30:50.243Z,7.67
2019-01-17T14:33:21.093Z,7.70
2019-01-17T14:35:50.700Z,7.33
2019-01-17T14:38:19.892Z,7.50
2019-01-17T14:40:49.553Z,5.83
2019-01-17T14:43:18.797Z,6.90
2019-01-17T14:45:48.519Z,5.53
2019-01-17T14:48:17.914Z,5.60
2019-01-17T14:50:47.510Z,4.97
2019-01-17T14:53:38.752Z,4.43
2019-01-17T14:56:29.345Z,5.20
2019-01-17T14:59:04.896Z,4.93
2019-01-17T15:05:10.442Z,5.87
2019-01-17T15:08:33.732Z,5.67
2019-01-17T15:14:35.368Z,5.73
2019-01-17T15:17:02.726Z,4.77
2019-01-17T15:20:04.785Z,5.00
2019-01-17T15:23:00.437Z,4.73
2019-01-17T15:29:18.941Z,6.90
2019-01-17T15:32:04.131Z,4.97
2019-01-17T15:34:58.183Z,4.90
2019-01-17T15:41:30.454Z,3.50
2019-01-17T15:43:59.984Z,2.97
2019-01-17T15:46:39.115Z,2.93
2019-01-17T15:49:08.616Z,3.10
2019-01-17T15:51:38.219Z,3.53
2019-01-17T15:54:07.951Z,3.27
2019-01-17T15:56:38.735Z,3.37
2019-01-17T15:59:09.996Z,3.33
2019-01-17T16:01:40.220Z,3.47
2019-01-17T16:04:09.895Z,3.10
2019-01-17T16:06:50.411Z,3.70
2019-01-17T16:09:14.581Z,3.67
2019-01-17T16:11:44.023Z,3.97
2019-01-17T16:14:13.346Z,4.00
2019-01-17T16:16:48.228Z,3.10
2019-01-17T16:19:14.326Z,2.73
2019-01-17T16:21:45.886Z,3.10
2019-01-17T16:24:16.262Z,2.60
2019-01-17T16:26:45.732Z,3.27
2019-01-17T16:29:26.343Z,2.40
2019-01-17T16:32:01.994Z,2.93
2019-01-17T16:34:54.672Z,2.60
2019-01-17T16:37:24.048Z,2.87
2019-01-17T16:39:56.409Z,2.47
2019-01-17T16:42:41.163Z,2.30
2019-01-17T16:45:18.346Z,2.90
2019-01-17T16:47:53.982Z,2.90
2019-01-17T16:50:26.818Z,3.53
2019-01-17T16:52:56.154Z,3.20
2019-01-17T16:55:33.046Z,3.47
2019-01-17T16:58:02.413Z,3.60
2019-01-17T17:00:34.963Z,3.47
2019-01-17T17:03:11.242Z,3.90
2019-01-17T17:06:01.315Z,4.00
2019-01-17T17:08:30.771Z,3.77
2019-01-17T17:11:03.031Z,4.10
2019-01-17T17:13:32.370Z,4.83
2019-01-17T17:16:01.585Z,5.13
2019-01-17T17:18:31.605Z,5.00
2019-01-17T17:21:01.504Z,4.97
2019-01-17T17:23:30.782Z,4.80
2019-01-17T17:26:03.704Z,4.40
2019-01-17T17:28:35.557Z,4.27
2019-01-17T17:31:07.255Z,5.00
2019-01-17T17:33:36.689Z,4.73
2019-01-17T17:37:02.512Z,5.63
2019-01-17T17:39:31.530Z,4.13
2019-01-17T17:42:13.279Z,3.50
2019-01-17T17:44:42.427Z,4.60
2019-01-17T17:47:16.244Z,4.87
2019-01-17T17:49:45.594Z,4.77
2019-01-17T17:52:14.577Z,3.57
2019-01-17T17:54:43.611Z,4.50
2019-01-17T17:57:12.775Z,3.60
2019-01-17T17:59:41.875Z,3.93
2019-01-17T18:02:19.107Z,4.67
2019-01-17T18:04:48.487Z,4.43
2019-01-17T18:07:17.434Z,3.83
2019-01-17T18:09:46.569Z,4.43
2019-01-17T18:12:16.406Z,5.67
2019-01-17T18:14:45.916Z,5.30
2019-01-17T18:17:16.366Z,5.73
2019-01-17T18:19:45.626Z,5.13
2019-01-17T18:22:14.657Z,5.93
2019-01-17T18:24:44.253Z,6.00
2019-01-17T18:27:16.808Z,7.10
2019-01-17T18:29:46.874Z,6.03
2019-01-17T18:32:17.208Z,4.87
2019-01-17T18:34:46.515Z,5.47
2019-01-17T18:37:16.203Z,5.23
2019-01-17T18:39:46.398Z,6.00
2019-01-17T18:42:17.789Z,5.17
2019-01-17T18:44:47.189Z,5.70
2019-01-17T18:47:17.771Z,6.40
2019-01-17T18:49:47.142Z,5.87
2019-01-17T18:52:18.101Z,5.20
2019-01-17T18:54:47.383Z,5.73
2019-01-17T18:57:20.551Z,5.30
2019-01-17T18:59:57.542Z,6.23
2019-01-17T19:02:35.971Z,6.63
2019-01-17T19:05:11.649Z,6.77
2019-01-17T19:07:55.104Z,7.33
2019-01-17T19:10:44.075Z,8.33
2019-01-17T19:13:13.514Z,6.10
2019-01-17T19:15:44.486Z,7.23
2019-01-17T19:18:18.017Z,7.10
2019-01-17T19:21:11.483Z,7.17
2019-01-17T19:23:52.497Z,6.23
2019-01-17T19:26:21.893Z,7.27
2019-01-17T19:28:51.110Z,6.87
2019-01-17T19:31:21.421Z,7.63
2019-01-17T19:33:52.012Z,8.03
2019-01-17T19:36:22.565Z,7.40
2019-01-17T19:38:51.936Z,8.67
2019-01-17T19:41:21.551Z,9.23
2019-01-17T19:43:51.199Z,9.93
2019-01-17T19:46:21.159Z,9.57
2019-01-17T19:48:50.480Z,10.63
2019-01-17T19:51:20.044Z,9.73
2019-01-17T19:53:49.665Z,12.10
2019-01-17T19:56:20.420Z,11.33
2019-01-17T19:58:50.001Z,11.73
2019-01-17T20:01:22.622Z,11.53
2019-01-17T20:03:53.489Z,12.30
2019-01-17T20:06:22.908Z,11.33
2019-01-17T20:08:52.414Z,13.23
2019-01-17T20:11:24.537Z,13.53
2019-01-17T20:13:54.270Z,13.53
2019-01-17T20:16:24.186Z,14.37
2019-01-17T20:18:53.844Z,13.03
2019-01-17T20:21:23.204Z,13.60
2019-01-17T20:23:52.714Z,12.87
2019-01-17T20:26:22.660Z,14.47
2019-01-17T20:28:52.103Z,15.43
2019-01-17T20:31:21.625Z,14.17
2019-01-17T20:33:51.354Z,13.43
2019-01-17T20:36:20.935Z,13.33
2019-01-17T20:38:51.268Z,14.13
2019-01-17T20:41:20.814Z,13.93
2019-01-17T20:43:50.250Z,16.33
2019-01-17T20:46:19.632Z,15.50
2019-01-17T20:48:49.875Z,15.17
2019-01-17T20:51:19.323Z,16.07
2019-01-17T20:53:48.702Z,15.17
2019-01-17T20:56:18.133Z,17.43
2019-01-17T20:58:48.797Z,17.43
2019-01-17T21:01:41.859Z,18.90
2019-01-17T21:04:12.984Z,17.33
2019-01-17T21:06:46.166Z,17.87
2019-01-17T21:09:15.903Z,18.20
2019-01-17T21:11:45.821Z,16.13
2019-01-17T21:19:53.463Z,17.03
2019-01-17T21:22:25.095Z,17.13
2019-01-17T21:25:05.928Z,16.83
2019-01-17T21:27:35.006Z,16.50
2019-01-17T21:30:04.723Z,16.73
2019-01-17T21:32:33.920Z,18.10
2019-01-17T21:35:03.056Z,16.77
2019-01-17T21:37:32.076Z,18.10
2019-01-17T21:40:01.144Z,17.80
2019-01-17T21:42:30.254Z,16.77
2019-01-17T21:44:59.537Z,17.20
2019-01-17T21:47:28.567Z,17.77
2019-01-17T21:49:57.652Z,17.80
2019-01-17T21:52:26.710Z,16.00
2019-01-17T21:54:56.223Z,16.73
2019-01-17T21:57:25.150Z,15.77
2019-01-17T21:59:54.233Z,16.90
2019-01-17T22:02:23.220Z,16.53
2019-01-17T22:04:52.739Z,16.63
2019-01-17T22:07:23.787Z,16.80
2019-01-17T22:10:01.727Z,17.33
2019-01-17T22:12:31.347Z,18.63
2019-01-17T22:17:55.872Z,15.27
2019-01-17T22:20:27.863Z,15.53
2019-01-17T22:23:11.028Z,14.73
2019-01-17T22:25:41.082Z,15.90
2019-01-17T22:28:10.898Z,14.60
2019-01-17T22:30:40.040Z,14.17
2019-01-17T22:33:12.268Z,13.20
2019-01-17T22:35:41.422Z,11.53
2019-01-17T22:38:10.414Z,11.13
2019-01-17T22:40:39.603Z,10.93
2019-01-17T22:43:08.763Z,10.27
2019-01-17T22:45:37.854Z,10.13
2019-01-17T22:48:06.991Z,9.33
2019-01-17T22:50:36.149Z,9.47
2019-01-17T22:53:05.201Z,9.57
2019-01-17T22:55:34.529Z,9.97
2019-01-17T22:58:03.562Z,10.40
2019-01-17T23:01:05.349Z,10.50
2019-01-17T23:03:40.491Z,9.77
2019-01-17T23:06:09.576Z,10.60
2019-01-17T23:08:40.350Z,9.23
2019-01-17T23:11:09.382Z,11.37
2019-01-17T23:13:40.289Z,9.90
2019-01-17T23:16:09.443Z,11.07
2019-01-17T23:18:38.920Z,9.93
2019-01-17T23:21:08.024Z,11.00
2019-01-17T23:23:38.438Z,10.93
2019-01-17T23:26:07.468Z,12.00
2019-01-17T23:28:36.454Z,11.40
2019-01-17T23:31:05.412Z,12.87
2019-01-17T23:33:34.380Z,12.33
2019-01-17T23:36:03.395Z,13.53
2019-01-17T23:38:32.419Z,13.73
2019-01-17T23:41:01.366Z,12.80
2019-01-17T23:43:30.338Z,13.87
2019-01-17T23:45:59.372Z,12.63
2019-01-17T23:48:28.291Z,13.33
2019-01-17T23:50:57.232Z,13.77
2019-01-17T23:53:26.308Z,15.03
2019-01-17T23:55:55.340Z,15.57
2019-01-17T23:58:24.426Z,15.87
